sensor_id;sensor_type;location;lat;lon;timestamp;noise_LAeq;noise_LA_min;noise_LA_max;noise_LA01;noise_LA95
49215;Laerm;45943;53.148;8.204;2023-05-07T00:00:27;47.82;37.05;63.27;;
49215;Laerm;45943;53.148;8.204;2023-05-07T00:02:53;48.34;35.64;68.55;;
49215;Laerm;45943;53.148;8.204;2023-05-07T00:05:19;41.64;36.54;52.54;;
49215;Laerm;45943;53.148;8.204;2023-05-07T00:07:46;43.51;36.26;64.51;;
49215;Laerm;45943;53.148;8.204;2023-05-07T00:10:12;46.49;36.26;64.50;;
49215;Laerm;45943;53.148;8.204;2023-05-07T00:12:38;40.23;35.64;44.41;;
49215;Laerm;45943;53.148;8.204;2023-05-07T00:15:05;42.53;35.96;61.67;;
49215;Laerm;45943;53.148;8.204;2023-05-07T00:17:32;40.50;35.29;46.78;;
49215;Laerm;45943;53.148;8.204;2023-05-07T00:19:58;49.51;36.80;69.74;;
49215;Laerm;45943;53.148;8.204;2023-05-07T00:22:25;40.70;35.96;45.25;;
49215;Laerm;45943;53.148;8.204;2023-05-07T00:24:51;50.28;36.80;70.17;;
49215;Laerm;45943;53.148;8.204;2023-05-07T00:27:17;40.84;35.96;47.26;;
49215;Laerm;45943;53.148;8.204;2023-05-07T00:29:43;41.46;37.05;45.61;;
49215;Laerm;45943;53.148;8.204;2023-05-07T00:32:09;41.67;37.51;54.66;;
49215;Laerm;45943;53.148;8.204;2023-05-07T00:34:35;41.43;36.80;47.05;;
49215;Laerm;45943;53.148;8.204;2023-05-07T00:37:01;40.07;36.26;44.02;;
49215;Laerm;45943;53.148;8.204;2023-05-07T00:39:27;45.94;37.92;64.32;;
49215;Laerm;45943;53.148;8.204;2023-05-07T00:41:53;41.04;36.19;48.51;;
49215;Laerm;45943;53.148;8.204;2023-05-07T00:44:19;40.04;35.96;43.84;;
49215;Laerm;45943;53.148;8.204;2023-05-07T00:46:45;40.88;36.26;44.79;;
49215;Laerm;45943;53.148;8.204;2023-05-07T00:49:14;40.87;36.26;53.31;;
49215;Laerm;45943;53.148;8.204;2023-05-07T00:51:40;49.69;35.96;70.24;;
49215;Laerm;45943;53.148;8.204;2023-05-07T00:54:07;41.53;36.54;59.24;;
49215;Laerm;45943;53.148;8.204;2023-05-07T00:56:34;40.91;36.26;45.43;;
49215;Laerm;45943;53.148;8.204;2023-05-07T00:59:01;41.43;36.80;50.58;;
49215;Laerm;45943;53.148;8.204;2023-05-07T01:01:27;41.07;37.05;45.22;;
49215;Laerm;45943;53.148;8.204;2023-05-07T01:03:53;41.66;35.29;59.81;;
49215;Laerm;45943;53.148;8.204;2023-05-07T01:06:21;41.88;37.51;51.00;;
49215;Laerm;45943;53.148;8.204;2023-05-07T01:08:49;40.79;34.50;44.95;;
49215;Laerm;45943;53.148;8.204;2023-05-07T01:11:16;48.57;36.54;68.67;;
49215;Laerm;45943;53.148;8.204;2023-05-07T01:13:45;43.52;37.05;61.61;;
49215;Laerm;45943;53.148;8.204;2023-05-07T01:16:12;47.35;36.26;66.57;;
49215;Laerm;45943;53.148;8.204;2023-05-07T01:18:38;40.67;34.91;49.62;;
49215;Laerm;45943;53.148;8.204;2023-05-07T01:21:05;41.40;35.64;69.03;;
49215;Laerm;45943;53.148;8.204;2023-05-07T01:23:31;40.78;36.26;55.93;;
49215;Laerm;45943;53.148;8.204;2023-05-07T01:25:58;41.33;35.64;49.60;;
49215;Laerm;45943;53.148;8.204;2023-05-07T01:28:24;40.73;35.64;46.65;;
49215;Laerm;45943;53.148;8.204;2023-05-07T01:30:54;48.29;37.72;67.77;;
49215;Laerm;45943;53.148;8.204;2023-05-07T01:33:21;41.56;36.80;50.34;;
49215;Laerm;45943;53.148;8.204;2023-05-07T01:35:51;42.67;37.05;57.48;;
49215;Laerm;45943;53.148;8.204;2023-05-07T01:38:18;51.42;35.64;70.89;;
49215;Laerm;45943;53.148;8.204;2023-05-07T01:40:46;40.55;35.29;47.70;;
49215;Laerm;45943;53.148;8.204;2023-05-07T01:43:13;50.22;36.54;70.42;;
49215;Laerm;45943;53.148;8.204;2023-05-07T01:45:40;42.12;37.29;48.63;;
49215;Laerm;45943;53.148;8.204;2023-05-07T01:48:07;40.72;35.96;46.37;;
49215;Laerm;45943;53.148;8.204;2023-05-07T01:50:34;43.04;36.26;63.29;;
49215;Laerm;45943;53.148;8.204;2023-05-07T01:53:03;43.05;37.51;55.38;;
49215;Laerm;45943;53.148;8.204;2023-05-07T01:55:29;41.03;37.05;44.91;;
49215;Laerm;45943;53.148;8.204;2023-05-07T01:57:55;41.43;36.26;50.71;;
49215;Laerm;45943;53.148;8.204;2023-05-07T02:00:21;40.62;35.96;45.18;;
49215;Laerm;45943;53.148;8.204;2023-05-07T02:02:47;40.49;36.26;44.46;;
49215;Laerm;45943;53.148;8.204;2023-05-07T02:05:13;41.45;36.26;47.26;;
49215;Laerm;45943;53.148;8.204;2023-05-07T02:07:39;40.59;35.64;44.14;;
49215;Laerm;45943;53.148;8.204;2023-05-07T02:10:05;41.76;36.80;57.71;;
49215;Laerm;45943;53.148;8.204;2023-05-07T02:12:31;40.57;36.80;43.74;;
49215;Laerm;45943;53.148;8.204;2023-05-07T02:14:57;39.98;35.64;43.36;;
49215;Laerm;45943;53.148;8.204;2023-05-07T02:17:23;40.82;35.96;50.01;;
49215;Laerm;45943;53.148;8.204;2023-05-07T02:19:49;39.77;36.26;43.48;;
49215;Laerm;45943;53.148;8.204;2023-05-07T02:22:15;40.03;35.64;51.70;;
49215;Laerm;45943;53.148;8.204;2023-05-07T02:24:41;39.33;34.50;46.70;;
49215;Laerm;45943;53.148;8.204;2023-05-07T02:27:07;40.07;35.29;56.29;;
49215;Laerm;45943;53.148;8.204;2023-05-07T02:29:33;40.81;35.96;54.17;;
49215;Laerm;45943;53.148;8.204;2023-05-07T02:31:59;42.78;36.80;59.68;;
49215;Laerm;45943;53.148;8.204;2023-05-07T02:34:25;42.73;36.26;60.54;;
49215;Laerm;45943;53.148;8.204;2023-05-07T02:36:51;42.16;36.54;57.58;;
49215;Laerm;45943;53.148;8.204;2023-05-07T02:39:17;42.89;36.54;69.07;;
49215;Laerm;45943;53.148;8.204;2023-05-07T02:41:43;42.42;36.54;58.03;;
49215;Laerm;45943;53.148;8.204;2023-05-07T02:44:09;48.32;35.64;68.03;;
49215;Laerm;45943;53.148;8.204;2023-05-07T02:46:35;43.75;36.19;59.18;;
49215;Laerm;45943;53.148;8.204;2023-05-07T02:49:01;44.79;36.54;60.73;;
49215;Laerm;45943;53.148;8.204;2023-05-07T02:51:27;45.16;36.54;60.69;;
49215;Laerm;45943;53.148;8.204;2023-05-07T02:53:53;46.11;36.80;59.63;;
49215;Laerm;45943;53.148;8.204;2023-05-07T02:56:19;48.11;38.48;64.68;;
49215;Laerm;45943;53.148;8.204;2023-05-07T02:58:45;51.55;37.05;68.71;;
49215;Laerm;45943;53.148;8.204;2023-05-07T03:01:13;50.02;38.92;63.08;;
49215;Laerm;45943;53.148;8.204;2023-05-07T03:03:40;54.06;39.12;73.82;;
49215;Laerm;45943;53.148;8.204;2023-05-07T03:06:06;53.69;39.27;69.60;;
49215;Laerm;45943;53.148;8.204;2023-05-07T03:08:32;53.36;38.30;68.53;;
49215;Laerm;45943;53.148;8.204;2023-05-07T03:10:58;51.04;39.94;64.73;;
49215;Laerm;45943;53.148;8.204;2023-05-07T03:13:25;59.21;37.92;81.91;;
49215;Laerm;45943;53.148;8.204;2023-05-07T03:15:51;45.17;38.30;58.07;;
49215;Laerm;45943;53.148;8.204;2023-05-07T03:18:17;59.47;39.27;78.12;;
49215;Laerm;45943;53.148;8.204;2023-05-07T03:20:43;47.94;39.55;62.67;;
49215;Laerm;45943;53.148;8.204;2023-05-07T03:23:09;47.75;39.12;67.39;;
49215;Laerm;45943;53.148;8.204;2023-05-07T03:25:35;48.43;38.12;67.67;;
49215;Laerm;45943;53.148;8.204;2023-05-07T03:28:01;51.99;37.92;69.82;;
49215;Laerm;45943;53.148;8.204;2023-05-07T03:30:26;45.12;37.29;67.28;;
49215;Laerm;45943;53.148;8.204;2023-05-07T03:32:52;42.71;37.05;67.29;;
49215;Laerm;45943;53.148;8.204;2023-05-07T03:35:18;50.10;36.80;73.77;;
49215;Laerm;45943;53.148;8.204;2023-05-07T03:37:44;53.51;37.72;69.64;;
49215;Laerm;45943;53.148;8.204;2023-05-07T03:40:11;42.40;37.51;53.97;;
49215;Laerm;45943;53.148;8.204;2023-05-07T03:42:37;44.79;37.72;59.52;;
49215;Laerm;45943;53.148;8.204;2023-05-07T03:45:04;45.35;38.48;61.77;;
49215;Laerm;45943;53.148;8.204;2023-05-07T03:47:30;50.04;37.05;69.11;;
49215;Laerm;45943;53.148;8.204;2023-05-07T03:49:56;52.94;38.48;69.73;;
49215;Laerm;45943;53.148;8.204;2023-05-07T03:52:22;52.26;37.51;68.65;;
49215;Laerm;45943;53.148;8.204;2023-05-07T03:54:52;46.77;38.65;68.35;;
49215;Laerm;45943;53.148;8.204;2023-05-07T03:57:18;45.30;40.18;54.14;;
49215;Laerm;45943;53.148;8.204;2023-05-07T03:59:44;42.28;38.30;47.12;;
49215;Laerm;45943;53.148;8.204;2023-05-07T04:02:10;42.97;38.30;61.02;;
49215;Laerm;45943;53.148;8.204;2023-05-07T04:04:36;52.96;39.41;70.13;;
49215;Laerm;45943;53.148;8.204;2023-05-07T04:07:02;51.76;38.12;67.90;;
49215;Laerm;45943;53.148;8.204;2023-05-07T04:09:28;43.48;38.30;56.84;;
49215;Laerm;45943;53.148;8.204;2023-05-07T04:11:57;42.16;37.05;55.80;;
49215;Laerm;45943;53.148;8.204;2023-05-07T04:14:23;41.62;36.54;53.12;;
49215;Laerm;45943;53.148;8.204;2023-05-07T04:16:49;56.88;37.72;76.72;;
49215;Laerm;45943;53.148;8.204;2023-05-07T04:19:15;43.81;37.29;59.93;;
49215;Laerm;45943;53.148;8.204;2023-05-07T04:21:41;46.86;37.05;69.30;;
49215;Laerm;45943;53.148;8.204;2023-05-07T04:24:07;43.83;37.51;55.53;;
49215;Laerm;45943;53.148;8.204;2023-05-07T04:26:33;41.80;38.12;51.85;;
49215;Laerm;45943;53.148;8.204;2023-05-07T04:28:59;47.93;37.29;67.01;;
49215;Laerm;45943;53.148;8.204;2023-05-07T04:31:25;43.24;37.92;58.87;;
49215;Laerm;45943;53.148;8.204;2023-05-07T04:33:51;47.90;38.81;66.77;;
49215;Laerm;45943;53.148;8.204;2023-05-07T04:36:17;43.09;38.12;61.92;;
49215;Laerm;45943;53.148;8.204;2023-05-07T04:38:43;43.05;37.72;65.34;;
49215;Laerm;45943;53.148;8.204;2023-05-07T04:41:12;43.65;37.29;57.65;;
49215;Laerm;45943;53.148;8.204;2023-05-07T04:43:38;50.25;38.30;69.80;;
49215;Laerm;45943;53.148;8.204;2023-05-07T04:46:04;45.21;39.41;56.27;;
49215;Laerm;45943;53.148;8.204;2023-05-07T04:48:30;52.94;37.58;74.89;;
49215;Laerm;45943;53.148;8.204;2023-05-07T04:50:56;46.03;36.54;63.70;;
49215;Laerm;45943;53.148;8.204;2023-05-07T04:53:22;52.78;37.51;72.96;;
49215;Laerm;45943;53.148;8.204;2023-05-07T04:55:48;46.55;39.07;62.24;;
49215;Laerm;45943;53.148;8.204;2023-05-07T04:58:14;51.79;39.41;71.08;;
49215;Laerm;45943;53.148;8.204;2023-05-07T05:00:40;48.62;37.51;67.51;;
49215;Laerm;45943;53.148;8.204;2023-05-07T05:03:06;46.74;39.55;64.61;;
49215;Laerm;45943;53.148;8.204;2023-05-07T05:05:33;44.12;38.48;59.54;;
49215;Laerm;45943;53.148;8.204;2023-05-07T05:07:59;48.62;38.12;66.33;;
49215;Laerm;45943;53.148;8.204;2023-05-07T05:10:25;46.59;38.12;63.73;;
49215;Laerm;45943;53.148;8.204;2023-05-07T05:12:51;47.43;37.72;68.69;;
49215;Laerm;45943;53.148;8.204;2023-05-07T05:15:17;46.11;38.12;65.45;;
49215;Laerm;45943;53.148;8.204;2023-05-07T05:17:43;50.01;39.27;70.39;;
49215;Laerm;45943;53.148;8.204;2023-05-07T05:20:09;57.04;39.27;76.10;;
49215;Laerm;45943;53.148;8.204;2023-05-07T05:22:36;52.39;38.48;72.57;;
49215;Laerm;45943;53.148;8.204;2023-05-07T05:25:02;46.96;38.97;65.91;;
49215;Laerm;45943;53.148;8.204;2023-05-07T05:27:28;44.04;38.65;56.84;;
49215;Laerm;45943;53.148;8.204;2023-05-07T05:29:54;42.52;38.97;47.12;;
49215;Laerm;45943;53.148;8.204;2023-05-07T05:32:20;43.34;37.29;53.60;;
49215;Laerm;45943;53.148;8.204;2023-05-07T05:34:46;46.83;37.72;64.87;;
49215;Laerm;45943;53.148;8.204;2023-05-07T05:37:12;46.30;36.54;65.13;;
49215;Laerm;45943;53.148;8.204;2023-05-07T05:39:38;52.90;37.92;70.95;;
49215;Laerm;45943;53.148;8.204;2023-05-07T05:42:04;57.31;40.18;71.39;;
49215;Laerm;45943;53.148;8.204;2023-05-07T05:44:30;43.08;38.12;52.01;;
49215;Laerm;45943;53.148;8.204;2023-05-07T05:46:56;42.42;38.12;49.88;;
49215;Laerm;45943;53.148;8.204;2023-05-07T05:49:25;43.11;38.30;62.27;;
49215;Laerm;45943;53.148;8.204;2023-05-07T05:51:51;43.14;38.30;59.66;;
49215;Laerm;45943;53.148;8.204;2023-05-07T05:54:17;47.13;37.72;62.26;;
49215;Laerm;45943;53.148;8.204;2023-05-07T05:56:43;46.95;38.81;66.68;;
49215;Laerm;45943;53.148;8.204;2023-05-07T05:59:09;50.34;38.30;70.48;;
49215;Laerm;45943;53.148;8.204;2023-05-07T06:01:36;47.41;38.48;65.53;;
49215;Laerm;45943;53.148;8.204;2023-05-07T06:04:02;42.76;38.65;55.82;;
49215;Laerm;45943;53.148;8.204;2023-05-07T06:06:28;46.35;38.65;64.79;;
49215;Laerm;45943;53.148;8.204;2023-05-07T06:08:54;48.49;38.30;66.85;;
49215;Laerm;45943;53.148;8.204;2023-05-07T06:11:20;43.51;38.65;62.47;;
49215;Laerm;45943;53.148;8.204;2023-05-07T06:13:46;48.75;38.30;66.10;;
49215;Laerm;45943;53.148;8.204;2023-05-07T06:16:12;48.95;36.80;66.82;;
49215;Laerm;45943;53.148;8.204;2023-05-07T06:18:38;44.35;38.48;61.30;;
49215;Laerm;45943;53.148;8.204;2023-05-07T06:21:04;56.82;39.12;74.72;;
49215;Laerm;45943;53.148;8.204;2023-05-07T06:23:30;49.34;38.81;64.57;;
49215;Laerm;45943;53.148;8.204;2023-05-07T06:25:56;43.05;38.65;54.81;;
49215;Laerm;45943;53.148;8.204;2023-05-07T06:28:22;43.20;38.30;64.13;;
49215;Laerm;45943;53.148;8.204;2023-05-07T06:30:48;46.36;39.41;68.48;;
49215;Laerm;45943;53.148;8.204;2023-05-07T06:33:15;52.47;39.12;69.42;;
49215;Laerm;45943;53.148;8.204;2023-05-07T06:35:41;41.98;38.92;48.23;;
49215;Laerm;45943;53.148;8.204;2023-05-07T06:38:07;50.76;38.30;67.71;;
49215;Laerm;45943;53.148;8.204;2023-05-07T06:40:33;57.57;39.68;73.42;;
49215;Laerm;45943;53.148;8.204;2023-05-07T06:42:59;42.90;38.30;47.19;;
49215;Laerm;45943;53.148;8.204;2023-05-07T06:45:25;50.52;38.81;69.26;;
49215;Laerm;45943;53.148;8.204;2023-05-07T06:47:51;48.37;39.12;63.64;;
49215;Laerm;45943;53.148;8.204;2023-05-07T06:50:17;51.61;40.18;68.40;;
49215;Laerm;45943;53.148;8.204;2023-05-07T06:52:43;48.31;41.22;66.75;;
49215;Laerm;45943;53.148;8.204;2023-05-07T06:55:09;46.20;40.30;62.26;;
49215;Laerm;45943;53.148;8.204;2023-05-07T06:57:38;63.91;40.41;76.80;;
49215;Laerm;45943;53.148;8.204;2023-05-07T07:00:04;57.57;39.12;82.70;;
49215;Laerm;45943;53.148;8.204;2023-05-07T07:02:32;45.81;38.81;62.44;;
49215;Laerm;45943;53.148;8.204;2023-05-07T07:04:58;47.85;39.27;67.56;;
49215;Laerm;45943;53.148;8.204;2023-05-07T07:07:24;44.11;38.81;57.95;;
49215;Laerm;45943;53.148;8.204;2023-05-07T07:09:50;48.12;38.81;67.94;;
49215;Laerm;45943;53.148;8.204;2023-05-07T07:12:17;45.16;38.12;62.57;;
49215;Laerm;45943;53.148;8.204;2023-05-07T07:14:43;46.78;37.92;66.33;;
49215;Laerm;45943;53.148;8.204;2023-05-07T07:17:09;51.03;40.06;68.87;;
49215;Laerm;45943;53.148;8.204;2023-05-07T07:19:35;52.17;38.65;74.31;;
49215;Laerm;45943;53.148;8.204;2023-05-07T07:22:01;53.11;38.97;70.77;;
49215;Laerm;45943;53.148;8.204;2023-05-07T07:24:27;49.59;38.30;68.34;;
49215;Laerm;45943;53.148;8.204;2023-05-07T07:26:55;44.13;40.06;62.73;;
49215;Laerm;45943;53.148;8.204;2023-05-07T07:29:21;49.73;38.65;67.80;;
49215;Laerm;45943;53.148;8.204;2023-05-07T07:31:48;49.32;39.55;69.41;;
49215;Laerm;45943;53.148;8.204;2023-05-07T07:34:15;46.13;39.12;63.61;;
49215;Laerm;45943;53.148;8.204;2023-05-07T07:36:41;44.42;38.81;61.18;;
49215;Laerm;45943;53.148;8.204;2023-05-07T07:39:07;56.16;39.94;71.97;;
49215;Laerm;45943;53.148;8.204;2023-05-07T07:41:33;53.60;38.78;70.35;;
49215;Laerm;45943;53.148;8.204;2023-05-07T07:43:59;52.07;39.68;68.20;;
49215;Laerm;45943;53.148;8.204;2023-05-07T07:46:25;49.53;39.27;66.95;;
49215;Laerm;45943;53.148;8.204;2023-05-07T07:48:52;50.48;39.81;69.59;;
49215;Laerm;45943;53.148;8.204;2023-05-07T07:51:18;46.90;39.68;64.84;;
49215;Laerm;45943;53.148;8.204;2023-05-07T07:53:44;59.71;42.15;84.03;;
49215;Laerm;45943;53.148;8.204;2023-05-07T07:56:10;62.97;42.89;86.74;;
49215;Laerm;45943;53.148;8.204;2023-05-07T07:58:36;56.69;42.95;79.99;;
49215;Laerm;45943;53.148;8.204;2023-05-07T08:01:03;51.84;41.13;71.05;;
49215;Laerm;45943;53.148;8.204;2023-05-07T08:03:29;47.26;39.12;67.80;;
49215;Laerm;45943;53.148;8.204;2023-05-07T08:05:58;58.34;41.22;69.56;;
49215;Laerm;45943;53.148;8.204;2023-05-07T08:08:24;52.36;40.41;66.63;;
49215;Laerm;45943;53.148;8.204;2023-05-07T08:10:50;47.21;39.41;71.08;;
49215;Laerm;45943;53.148;8.204;2023-05-07T08:13:17;49.68;39.68;66.26;;
49215;Laerm;45943;53.148;8.204;2023-05-07T08:15:43;46.85;39.12;63.38;;
49215;Laerm;45943;53.148;8.204;2023-05-07T08:18:09;54.46;43.07;71.24;;
49215;Laerm;45943;53.148;8.204;2023-05-07T08:20:36;56.68;42.21;73.59;;
49215;Laerm;45943;53.148;8.204;2023-05-07T08:23:05;63.02;43.36;78.59;;
49215;Laerm;45943;53.148;8.204;2023-05-07T08:25:33;51.75;40.18;65.73;;
49215;Laerm;45943;53.148;8.204;2023-05-07T08:28:00;52.28;40.30;67.27;;
49215;Laerm;45943;53.148;8.204;2023-05-07T08:30:26;45.95;39.94;58.61;;
49215;Laerm;45943;53.148;8.204;2023-05-07T08:32:52;53.75;39.41;79.31;;
49215;Laerm;45943;53.148;8.204;2023-05-07T08:35:18;65.79;39.68;88.29;;
49215;Laerm;45943;53.148;8.204;2023-05-07T08:37:44;67.92;39.12;79.22;;
49215;Laerm;45943;53.148;8.204;2023-05-07T08:40:11;60.84;40.41;81.94;;
49215;Laerm;45943;53.148;8.204;2023-05-07T08:42:37;54.32;39.95;76.74;;
49215;Laerm;45943;53.148;8.204;2023-05-07T08:45:04;51.44;41.13;78.16;;
49215;Laerm;45943;53.148;8.204;2023-05-07T08:47:40;75.89;41.22;104.48;;
49215;Laerm;45943;53.148;8.204;2023-05-07T08:50:08;60.85;40.52;74.57;;
49215;Laerm;45943;53.148;8.204;2023-05-07T08:52:35;49.80;42.42;65.79;;
49215;Laerm;45943;53.148;8.204;2023-05-07T08:55:02;51.89;42.69;67.46;;
49215;Laerm;45943;53.148;8.204;2023-05-07T08:57:28;51.48;41.31;72.63;;
49215;Laerm;45943;53.148;8.204;2023-05-07T08:59:54;54.40;40.41;74.62;;
49215;Laerm;45943;53.148;8.204;2023-05-07T09:02:20;51.74;40.93;68.25;;
49215;Laerm;45943;53.148;8.204;2023-05-07T09:04:46;50.60;44.18;67.86;;
49215;Laerm;45943;53.148;8.204;2023-05-07T09:07:13;48.40;40.30;64.61;;
49215;Laerm;45943;53.148;8.204;2023-05-07T09:09:38;44.51;40.83;58.15;;
49215;Laerm;45943;53.148;8.204;2023-05-07T09:12:05;46.55;39.94;64.52;;
49215;Laerm;45943;53.148;8.204;2023-05-07T09:14:31;50.93;40.73;67.65;;
49215;Laerm;45943;53.148;8.204;2023-05-07T09:16:57;53.10;40.83;71.08;;
49215;Laerm;45943;53.148;8.204;2023-05-07T09:19:23;46.34;40.83;61.06;;
49215;Laerm;45943;53.148;8.204;2023-05-07T09:21:57;52.23;40.73;68.29;;
49215;Laerm;45943;53.148;8.204;2023-05-07T09:24:23;53.11;39.68;69.53;;
49215;Laerm;45943;53.148;8.204;2023-05-07T09:26:49;53.73;40.06;70.10;;
49215;Laerm;45943;53.148;8.204;2023-05-07T09:29:15;56.81;41.31;74.51;;
49215;Laerm;45943;53.148;8.204;2023-05-07T09:31:42;49.29;40.83;67.70;;
49215;Laerm;45943;53.148;8.204;2023-05-07T09:34:08;52.17;40.73;69.67;;
49215;Laerm;45943;53.148;8.204;2023-05-07T09:36:34;53.05;41.22;71.04;;
49215;Laerm;45943;53.148;8.204;2023-05-07T09:39:00;57.22;41.40;75.02;;
49215;Laerm;45943;53.148;8.204;2023-05-07T09:41:27;55.81;41.49;70.35;;
49215;Laerm;45943;53.148;8.204;2023-05-07T09:43:55;49.80;40.49;68.13;;
49215;Laerm;45943;53.148;8.204;2023-05-07T09:46:30;52.11;41.03;67.03;;
49215;Laerm;45943;53.148;8.204;2023-05-07T09:49:00;52.40;40.06;68.70;;
49215;Laerm;45943;53.148;8.204;2023-05-07T09:51:34;53.16;40.73;72.20;;
49215;Laerm;45943;53.148;8.204;2023-05-07T09:54:04;50.67;40.63;71.31;;
49215;Laerm;45943;53.148;8.204;2023-05-07T09:56:30;47.04;41.03;64.53;;
49215;Laerm;45943;53.148;8.204;2023-05-07T09:59:00;51.51;41.22;70.24;;
49215;Laerm;45943;53.148;8.204;2023-05-07T10:01:27;52.72;41.03;68.67;;
49215;Laerm;45943;53.148;8.204;2023-05-07T10:03:54;50.62;41.31;67.50;;
49215;Laerm;45943;53.148;8.204;2023-05-07T10:06:22;53.06;39.94;72.08;;
49215;Laerm;45943;53.148;8.204;2023-05-07T10:08:48;53.43;39.94;74.26;;
49215;Laerm;45943;53.148;8.204;2023-05-07T10:11:16;51.03;41.31;70.49;;
49215;Laerm;45943;53.148;8.204;2023-05-07T10:13:43;55.01;41.58;69.56;;
49215;Laerm;45943;53.148;8.204;2023-05-07T10:16:09;48.98;41.22;67.50;;
49215;Laerm;45943;53.148;8.204;2023-05-07T10:18:36;54.22;41.66;71.91;;
49215;Laerm;45943;53.148;8.204;2023-05-07T10:23:44;52.27;40.83;68.21;;
49215;Laerm;45943;53.148;8.204;2023-05-07T10:26:12;49.80;39.94;74.94;;
49215;Laerm;45943;53.148;8.204;2023-05-07T10:28:41;49.74;39.41;68.53;;
49215;Laerm;45943;53.148;8.204;2023-05-07T10:31:42;51.08;40.63;70.44;;
49215;Laerm;45943;53.148;8.204;2023-05-07T10:34:24;56.41;40.63;76.63;;
49215;Laerm;45943;53.148;8.204;2023-05-07T10:36:52;50.50;40.93;68.68;;
49215;Laerm;45943;53.148;8.204;2023-05-07T10:39:19;58.82;40.63;75.12;;
49215;Laerm;45943;53.148;8.204;2023-05-07T10:41:46;52.80;41.03;70.60;;
49215;Laerm;45943;53.148;8.204;2023-05-07T10:44:24;48.88;40.63;63.82;;
49215;Laerm;45943;53.148;8.204;2023-05-07T10:47:23;54.71;41.03;72.44;;
49215;Laerm;45943;53.148;8.204;2023-05-07T10:52:17;56.66;40.93;75.30;;
49215;Laerm;45943;53.148;8.204;2023-05-07T10:54:44;52.29;41.66;68.34;;
49215;Laerm;45943;53.148;8.204;2023-05-07T10:57:35;48.87;39.55;70.88;;
49215;Laerm;45943;53.148;8.204;2023-05-07T11:00:03;51.90;40.30;67.89;;
49215;Laerm;45943;53.148;8.204;2023-05-07T11:05:28;61.58;41.13;78.14;;
49215;Laerm;45943;53.148;8.204;2023-05-07T11:07:59;47.97;40.63;61.46;;
49215;Laerm;45943;53.148;8.204;2023-05-07T11:13:13;44.70;40.30;56.17;;
49215;Laerm;45943;53.148;8.204;2023-05-07T11:15:42;44.92;40.73;58.17;;
49215;Laerm;45943;53.148;8.204;2023-05-07T11:18:10;55.63;40.63;76.99;;
49215;Laerm;45943;53.148;8.204;2023-05-07T11:20:56;56.38;40.06;74.11;;
49215;Laerm;45943;53.148;8.204;2023-05-07T11:25:59;51.72;40.52;69.35;;
49215;Laerm;45943;53.148;8.204;2023-05-07T11:28:27;50.87;40.41;69.70;;
49215;Laerm;45943;53.148;8.204;2023-05-07T11:30:54;53.36;40.52;69.63;;
49215;Laerm;45943;53.148;8.204;2023-05-07T11:33:20;57.67;42.06;74.07;;
49215;Laerm;45943;53.148;8.204;2023-05-07T11:35:46;57.14;40.83;73.95;;
49215;Laerm;45943;53.148;8.204;2023-05-07T11:38:13;58.64;41.58;72.57;;
49215;Laerm;45943;53.148;8.204;2023-05-07T11:41:11;57.83;41.58;73.84;;
49215;Laerm;45943;53.148;8.204;2023-05-07T11:43:37;54.61;41.74;70.42;;
49215;Laerm;45943;53.148;8.204;2023-05-07T11:46:10;53.38;41.66;72.86;;
49215;Laerm;45943;53.148;8.204;2023-05-07T11:48:38;53.06;41.82;69.47;;
49215;Laerm;45943;53.148;8.204;2023-05-07T11:51:05;54.58;41.22;72.15;;
49215;Laerm;45943;53.148;8.204;2023-05-07T11:53:37;56.89;40.73;71.04;;
49215;Laerm;45943;53.148;8.204;2023-05-07T11:56:09;53.60;41.49;70.79;;
49215;Laerm;45943;53.148;8.204;2023-05-07T11:58:36;58.11;41.22;70.78;;
49215;Laerm;45943;53.148;8.204;2023-05-07T12:01:02;59.35;41.74;71.91;;
49215;Laerm;45943;53.148;8.204;2023-05-07T12:03:29;50.29;41.14;64.39;;
49215;Laerm;45943;53.148;8.204;2023-05-07T12:05:55;51.90;41.22;68.57;;
49215;Laerm;45943;53.148;8.204;2023-05-07T12:08:21;54.62;42.08;67.57;;
49215;Laerm;45943;53.148;8.204;2023-05-07T12:10:50;55.38;41.58;70.88;;
49215;Laerm;45943;53.148;8.204;2023-05-07T12:13:21;49.69;41.31;66.87;;
49215;Laerm;45943;53.148;8.204;2023-05-07T12:15:51;51.93;40.30;69.58;;
49215;Laerm;45943;53.148;8.204;2023-05-07T12:18:18;53.76;40.18;71.87;;
49215;Laerm;45943;53.148;8.204;2023-05-07T12:20:45;58.36;41.71;73.81;;
49215;Laerm;45943;53.148;8.204;2023-05-07T12:23:12;53.37;39.94;70.88;;
49215;Laerm;45943;53.148;8.204;2023-05-07T12:25:39;52.47;41.22;69.52;;
49215;Laerm;45943;53.148;8.204;2023-05-07T12:28:07;53.83;41.74;68.72;;
49215;Laerm;45943;53.148;8.204;2023-05-07T12:30:37;54.92;41.40;72.47;;
49215;Laerm;45943;53.148;8.204;2023-05-07T12:33:04;54.22;41.82;71.65;;
49215;Laerm;45943;53.148;8.204;2023-05-07T12:35:40;55.18;40.41;71.94;;
49215;Laerm;45943;53.148;8.204;2023-05-07T12:38:12;52.91;41.13;68.72;;
49215;Laerm;45943;53.148;8.204;2023-05-07T12:40:46;60.91;40.41;76.04;;
49215;Laerm;45943;53.148;8.204;2023-05-07T12:43:27;52.98;41.49;67.51;;
49215;Laerm;45943;53.148;8.204;2023-05-07T12:45:56;54.60;40.93;74.10;;
49215;Laerm;45943;53.148;8.204;2023-05-07T12:48:23;56.30;39.94;70.63;;
49215;Laerm;45943;53.148;8.204;2023-05-07T12:50:53;47.45;41.31;63.35;;
49215;Laerm;45943;53.148;8.204;2023-05-07T12:53:21;51.16;41.66;67.95;;
49215;Laerm;45943;53.148;8.204;2023-05-07T12:55:56;51.82;41.31;68.32;;
49215;Laerm;45943;53.148;8.204;2023-05-07T12:58:28;59.88;41.13;80.19;;
49215;Laerm;45943;53.148;8.204;2023-05-07T13:00:56;47.02;40.30;64.29;;
49215;Laerm;45943;53.148;8.204;2023-05-07T13:03:31;54.69;39.81;72.35;;
49215;Laerm;45943;53.148;8.204;2023-05-07T13:06:03;58.33;43.48;75.38;;
49215;Laerm;45943;53.148;8.204;2023-05-07T13:08:36;61.14;48.08;73.70;;
49215;Laerm;45943;53.148;8.204;2023-05-07T13:11:04;64.72;42.06;79.50;;
49215;Laerm;45943;53.148;8.204;2023-05-07T13:13:31;52.99;40.41;69.06;;
49215;Laerm;45943;53.148;8.204;2023-05-07T13:15:57;51.58;42.89;66.71;;
49215;Laerm;45943;53.148;8.204;2023-05-07T13:18:25;52.99;41.03;69.82;;
49215;Laerm;45943;53.148;8.204;2023-05-07T13:20:52;55.90;41.66;71.45;;
49215;Laerm;45943;53.148;8.204;2023-05-07T13:23:18;55.60;42.06;68.23;;
49215;Laerm;45943;53.148;8.204;2023-05-07T13:25:44;52.28;41.13;67.70;;
49215;Laerm;45943;53.148;8.204;2023-05-07T13:28:10;54.80;41.03;67.42;;
49215;Laerm;45943;53.148;8.204;2023-05-07T13:30:36;52.17;40.83;67.65;;
49215;Laerm;45943;53.148;8.204;2023-05-07T13:33:02;50.37;40.63;66.95;;
49215;Laerm;45943;53.148;8.204;2023-05-07T13:35:28;54.82;39.94;67.86;;
49215;Laerm;45943;53.148;8.204;2023-05-07T13:37:54;53.63;40.06;69.07;;
49215;Laerm;45943;53.148;8.204;2023-05-07T13:40:21;52.69;41.13;70.82;;
49215;Laerm;45943;53.148;8.204;2023-05-07T13:42:48;54.05;40.41;69.47;;
49215;Laerm;45943;53.148;8.204;2023-05-07T13:45:14;53.97;40.93;71.17;;
49215;Laerm;45943;53.148;8.204;2023-05-07T13:47:41;49.63;41.13;69.47;;
49215;Laerm;45943;53.148;8.204;2023-05-07T13:50:09;53.54;42.21;71.08;;
49215;Laerm;45943;53.148;8.204;2023-05-07T13:52:35;53.51;40.41;69.13;;
49215;Laerm;45943;53.148;8.204;2023-05-07T13:55:01;50.80;41.49;67.01;;
49215;Laerm;45943;53.148;8.204;2023-05-07T13:57:27;50.15;41.82;66.41;;